Terminal Aerodrome Forecast
Issued by NWS

Home | Current Version | Previous Version | Text Only | Print | Product List | Glossary On
Versions: 1 2 3 4 5 6 7 8 9 10 11 12 13 14 15 16 17 18 19
000
FTUS41 KGYX 270523
TAFRKD
TAF
KRKD 270523Z 2706/2806 02006KT 5SM -RA BR OVC025
     FM270900 01004KT P6SM BKN035
     FM280500 36006KT 6SM -SHRASN OVC035
      AMD LTD TO CLD VIS AND WIND=

USA.gov is the U.S. government's official web portal to all federal, state and local government web resources and services.